Time;durP1;ratioP1;P1;durP2;ratioP2;P2;SDS_P1;SDS_P2;PMS_P1;PMS_P2;Temp;Humidity;BMP_temperature;BMP_pressure;BME280_temperature;BME280_humidity;BME280_pressure;Samples;Min_cycle;Max_cycle;Signal;HPM_P1;HPM_P2
2022/03/14 00:01:32;;;;;;;;;;;;;;;10.73;100.00;101622.19;4988111;28;19969;-71
2022/03/14 00:03:59;;;;;;;;;;;;;;;10.59;100.00;101616.38;4979485;28;19918;-71
2022/03/14 00:06:25;;;;;;;;;;;;;;;10.64;100.00;101625.97;4993783;28;19968;-71
2022/03/14 00:08:51;;;;;;;;;;;;;;;10.69;100.00;101615.22;4993750;28;19918;-71
2022/03/14 00:11:17;;;;;;;;;;;;;;;10.56;100.00;101624.44;4993624;28;19918;-71
2022/03/14 00:13:44;;;;;;;;;;;;;;;10.65;100.00;101624.19;4993651;28;19940;-71
2022/03/14 00:16:09;;;;;;;;;;;;;;;10.56;100.00;101622.69;4982668;28;20076;-71
2022/03/14 00:18:35;;;;;;;;;;;;;;;10.52;100.00;101630.78;4993259;28;20430;-71
2022/03/14 00:21:00;;;;;;;;;;;;;;;10.61;100.00;101626.06;4983991;28;19923;-71
2022/03/14 00:23:27;;;;;;;;;;;;;;;10.53;100.00;101627.22;4988352;28;19961;-71
2022/03/14 00:25:54;;;;;;;;;;;;;;;10.50;100.00;101629.97;4993123;28;20295;-71
2022/03/14 00:28:19;;;;;;;;;;;;;;;10.54;100.00;101632.47;4993450;28;19917;-71
2022/03/14 00:30:45;;;;;;;;;;;;;;;10.51;100.00;101631.72;4993481;28;19945;-71
2022/03/14 00:33:10;;;;;;;;;;;;;;;10.46;100.00;101641.59;4985274;28;19964;-71
2022/03/14 00:35:35;;;;;;;;;;;;;;;10.57;100.00;101636.84;4973991;28;19942;-71
2022/03/14 00:38:01;;;;;;;;;;;;;;;10.49;100.00;101646.81;4973964;28;19926;-71
2022/03/14 00:40:26;;;;;;;;;;;;;;;10.49;100.00;101644.16;4989641;28;20378;-71
2022/03/14 00:42:51;;;;;;;;;;;;;;;10.51;100.00;101650.31;4982516;28;20371;-70
2022/03/14 00:45:17;;;;;;;;;;;;;;;10.50;100.00;101651.19;4990394;28;19925;-70
2022/03/14 00:47:42;;;;;;;;;;;;;;;10.49;100.00;101657.44;4975312;28;19918;-71
2022/03/14 00:50:08;;;;;;;;;;;;;;;10.46;100.00;101661.03;4985684;28;19945;-70
2022/03/14 00:52:33;;;;;;;;;;;;;;;10.44;100.00;101664.66;4976815;28;19976;-71
2022/03/14 00:54:59;;;;;;;;;;;;;;;10.44;100.00;101654.03;4981228;28;19968;-70
2022/03/14 00:57:24;;;;;;;;;;;;;;;10.45;100.00;101661.09;4980394;28;19928;-70
2022/03/14 00:59:49;;;;;;;;;;;;;;;10.45;100.00;101661.09;4983981;28;19922;-70
2022/03/14 01:02:14;;;;;;;;;;;;;;;10.53;100.00;101667.03;4982191;28;20414;-70
2022/03/14 01:04:40;;;;;;;;;;;;;;;10.44;100.00;101670.88;4984678;28;20413;-70
2022/03/14 01:07:05;;;;;;;;;;;;;;;10.38;100.00;101676.31;4981444;28;20008;-70
2022/03/14 01:09:31;;;;;;;;;;;;;;;10.45;100.00;101666.41;4983836;28;19925;-70
2022/03/14 01:11:56;;;;;;;;;;;;;;;10.37;100.00;101671.94;4978580;28;19969;-71
2022/03/14 01:14:22;;;;;;;;;;;;;;;10.31;100.00;101680.09;4964354;28;20359;-71
2022/03/14 01:16:47;;;;;;;;;;;;;;;10.32;100.00;101681.81;4982307;28;19918;-71
2022/03/14 01:19:13;;;;;;;;;;;;;;;10.29;100.00;101689.88;4987727;28;19918;-71
2022/03/14 01:21:39;;;;;;;;;;;;;;;10.32;100.00;101683.63;4983913;28;19972;-71
2022/03/14 01:24:04;;;;;;;;;;;;;;;10.39;100.00;101694.03;4984290;28;19918;-71
2022/03/14 01:26:29;;;;;;;;;;;;;;;10.27;100.00;101688.19;4978437;28;19929;-71
2022/03/14 01:28:54;;;;;;;;;;;;;;;10.24;100.00;101689.13;4987424;28;19929;-71
2022/03/14 01:31:20;;;;;;;;;;;;;;;10.20;100.00;101698.09;4992216;28;19929;-71
2022/03/14 01:33:45;;;;;;;;;;;;;;;10.14;100.00;101702.69;4990821;28;19917;-71
2022/03/14 01:36:10;;;;;;;;;;;;;;;10.03;100.00;101692.34;4985423;28;19918;-71
2022/03/14 01:38:36;;;;;;;;;;;;;;;10.10;100.00;101704.56;4988474;28;19993;-70
2022/03/14 01:41:01;;;;;;;;;;;;;;;10.06;100.00;101710.84;4988206;28;19937;-71
2022/03/14 01:43:26;;;;;;;;;;;;;;;9.99;100.00;101703.94;4985930;28;19925;-71
2022/03/14 01:45:58;;;;;;;;;;;;;;;10.00;100.00;101716.31;4987824;28;20823;-71
2022/03/14 01:48:24;;;;;;;;;;;;;;;10.08;100.00;101724.09;4983836;28;19922;-70
2022/03/14 01:50:49;;;;;;;;;;;;;;;10.05;100.00;101722.38;4988620;28;19976;-70
2022/03/14 01:56:19;;;;;;;;;;;;;;;9.85;100.00;101743.22;4977947;28;19993;-70
2022/03/14 01:59:15;;;;;;;;;;;;;;;9.96;100.00;101743.81;4993013;28;19915;-71
2022/03/14 02:01:40;;;;;;;;;;;;;;;9.79;100.00;101746.03;4989821;28;19925;-70
2022/03/14 02:04:08;;;;;;;;;;;;;;;9.84;100.00;101754.75;4993155;28;19918;-71
2022/03/14 02:06:35;;;;;;;;;;;;;;;9.93;100.00;101759.84;4978584;28;19918;-71
2022/03/14 02:09:00;;;;;;;;;;;;;;;9.87;100.00;101757.34;4983301;28;19921;-71
2022/03/14 02:11:26;;;;;;;;;;;;;;;9.96;100.00;101761.56;4996906;28;19918;-71
2022/03/14 02:13:51;;;;;;;;;;;;;;;9.89;100.00;101762.59;4983559;28;19918;-70
2022/03/14 02:19:20;;;;;;;;;;;;;;;9.86;100.00;101773.28;4986127;28;19921;-71
2022/03/14 02:24:48;;;;;;;;;;;;;;;9.84;100.00;101789.25;4989698;28;19925;-71
2022/03/14 02:27:14;;;;;;;;;;;;;;;9.79;100.00;101785.84;4987942;28;19918;-71
2022/03/14 02:29:40;;;;;;;;;;;;;;;9.80;100.00;101797.34;4995200;28;20004;-71
2022/03/14 02:32:06;;;;;;;;;;;;;;;9.75;100.00;101799.22;4983351;28;19929;-71
2022/03/14 02:34:31;;;;;;;;;;;;;;;9.82;100.00;101790.19;4980189;28;19919;-71
2022/03/14 02:36:57;;;;;;;;;;;;;;;9.78;100.00;101793.84;4990460;28;19922;-71
2022/03/14 02:39:23;;;;;;;;;;;;;;;9.68;100.00;101802.91;4981047;28;19949;-70
2022/03/14 02:41:48;;;;;;;;;;;;;;;9.64;100.00;101798.59;4987301;28;20302;-71
2022/03/14 02:44:13;;;;;;;;;;;;;;;9.52;100.00;101804.22;4985166;28;19924;-71
2022/03/14 02:46:39;;;;;;;;;;;;;;;9.48;100.00;101805.16;4978398;28;19946;-71
2022/03/14 02:49:05;;;;;;;;;;;;;;;9.48;100.00;101807.81;4989090;28;20113;-71
2022/03/14 02:51:30;;;;;;;;;;;;;;;9.55;100.00;101815.59;4975321;28;19929;-70
2022/03/14 02:53:57;;;;;;;;;;;;;;;9.52;100.00;101828.91;4988173;28;19918;-71
2022/03/14 02:56:22;;;;;;;;;;;;;;;9.57;100.00;101826.16;4991945;28;19967;-70
2022/03/14 02:58:52;;;;;;;;;;;;;;;9.46;100.00;101828.19;4966883;28;20021;-70
2022/03/14 03:01:17;;;;;;;;;;;;;;;9.46;100.00;101836.13;4990548;28;19921;-70
2022/03/14 03:03:43;;;;;;;;;;;;;;;9.46;100.00;101828.19;4994908;28;20333;-70
2022/03/14 03:06:11;;;;;;;;;;;;;;;9.49;100.00;101839.59;4989282;28;20036;-70
2022/03/14 03:08:37;;;;;;;;;;;;;;;9.41;100.00;101843.34;4993897;28;20362;-70
2022/03/14 03:11:04;;;;;;;;;;;;;;;9.44;100.00;101848.59;4988852;28;20004;-71
2022/03/14 03:13:29;;;;;;;;;;;;;;;9.42;100.00;101856.56;4980707;28;19917;-71
2022/03/14 03:15:54;;;;;;;;;;;;;;;9.44;100.00;101857.38;4982551;28;19922;-70
2022/03/14 03:18:20;;;;;;;;;;;;;;;9.42;100.00;101861.88;4986389;28;19918;-70
2022/03/14 03:20:45;;;;;;;;;;;;;;;9.36;100.00;101859.31;4995943;28;19921;-71
2022/03/14 03:23:10;;;;;;;;;;;;;;;9.27;100.00;101873.66;4994586;28;20004;-70
2022/03/14 03:25:35;;;;;;;;;;;;;;;9.12;100.00;101879.25;4986565;28;19950;-70
2022/03/14 03:28:00;;;;;;;;;;;;;;;8.85;100.00;101903.69;4986596;28;19995;-70
2022/03/14 03:30:26;;;;;;;;;;;;;;;8.83;100.00;101931.06;4991952;28;19998;-70
2022/03/14 03:32:51;;;;;;;;;;;;;;;8.67;100.00;101935.78;4995912;28;19924;-70
2022/03/14 03:35:16;;;;;;;;;;;;;;;8.59;100.00;101947.38;4992023;28;20438;-70
2022/03/14 03:37:44;;;;;;;;;;;;;;;8.53;100.00;101968.69;4994962;28;19922;-70
2022/03/14 03:40:09;;;;;;;;;;;;;;;8.56;100.00;101973.94;5002142;28;20524;-70
2022/03/14 03:42:34;;;;;;;;;;;;;;;8.55;100.00;101983.66;5001205;28;20012;-71
2022/03/14 03:45:36;;;;;;;;;;;;;;;8.52;100.00;101994.31;4983000;28;19925;-71
2022/03/14 03:48:01;;;;;;;;;;;;;;;8.40;100.00;101999.78;4985232;28;20012;-71
2022/03/14 03:50:26;;;;;;;;;;;;;;;8.56;100.00;102001.28;4987501;28;20012;-71
2022/03/14 03:52:51;;;;;;;;;;;;;;;8.47;100.00;102013.78;4984312;28;20290;-69
2022/03/14 03:55:16;;;;;;;;;;;;;;;8.38;100.00;102017.47;4988229;28;19924;-71
2022/03/14 03:57:42;;;;;;;;;;;;;;;8.38;100.00;102017.47;4994172;28;19918;-71
2022/03/14 04:00:09;;;;;;;;;;;;;;;8.35;100.00;102014.84;4994385;28;19976;-71
2022/03/14 04:02:38;;;;;;;;;;;;;;;8.36;100.00;102008.69;4985031;28;19946;-71
2022/03/14 04:05:04;;;;;;;;;;;;;;;8.33;100.00;102005.19;4989869;28;19925;-71
2022/03/14 04:07:32;;;;;;;;;;;;;;;8.36;100.00;102016.63;4980346;28;19918;-71
2022/03/14 04:09:58;;;;;;;;;;;;;;;8.36;100.00;102015.72;4985713;28;19924;-71
2022/03/14 04:12:25;;;;;;;;;;;;;;;8.32;100.00;102016.69;4986966;28;19922;-71
2022/03/14 04:14:51;;;;;;;;;;;;;;;8.36;100.00;102024.56;4988305;28;19918;-71
2022/03/14 04:17:17;;;;;;;;;;;;;;;8.45;100.00;102012.94;4989143;28;20294;-70
2022/03/14 04:19:42;;;;;;;;;;;;;;;8.39;100.00;102021.88;4989400;28;19964;-71
2022/03/14 04:22:07;;;;;;;;;;;;;;;8.44;100.00;102035.91;4989982;28;19953;-71
2022/03/14 04:24:34;;;;;;;;;;;;;;;8.44;100.00;102038.56;4973513;28;20363;-71
2022/03/14 04:26:59;;;;;;;;;;;;;;;8.47;100.00;102045.56;4974118;28;19949;-71
2022/03/14 04:29:24;;;;;;;;;;;;;;;8.50;100.00;102042.88;4973858;28;19964;-71
2022/03/14 04:31:50;;;;;;;;;;;;;;;8.45;100.00;102050.88;4975578;28;19922;-71
2022/03/14 04:34:15;;;;;;;;;;;;;;;8.47;100.00;102049.09;4994674;28;20068;-71
2022/03/14 04:36:40;;;;;;;;;;;;;;;8.49;100.00;102052.59;4994758;28;19918;-71
2022/03/14 04:39:06;;;;;;;;;;;;;;;8.53;100.00;102059.59;4994405;28;19925;-71
2022/03/14 04:41:35;;;;;;;;;;;;;;;8.42;100.00;102060.63;4993222;28;19925;-71
2022/03/14 04:44:01;;;;;;;;;;;;;;;8.52;100.00;102068.44;4993261;28;19918;-70
2022/03/14 04:46:26;;;;;;;;;;;;;;;8.56;100.00;102070.13;4993039;28;19924;-71
2022/03/14 04:48:51;;;;;;;;;;;;;;;8.56;100.00;102070.13;4993229;28;19925;-71
2022/03/14 04:51:17;;;;;;;;;;;;;;;8.58;100.00;102063.06;4993027;28;19921;-71
2022/03/14 04:53:42;;;;;;;;;;;;;;;8.58;100.00;102073.66;4993168;28;19968;-71
2022/03/14 04:56:07;;;;;;;;;;;;;;;8.57;100.00;102077.16;4994532;28;19917;-71
2022/03/14 04:58:33;;;;;;;;;;;;;;;8.51;100.00;102089.66;4993136;28;19918;-71
2022/03/14 05:00:58;;;;;;;;;;;;;;;8.43;100.00;102084.44;4993183;28;19924;-71
2022/03/14 05:03:24;;;;;;;;;;;;;;;8.43;100.00;102095.03;4994775;28;20029;-71
2022/03/14 05:05:49;;;;;;;;;;;;;;;8.37;100.00;102088.94;4997213;28;20355;-71
2022/03/14 05:08:14;;;;;;;;;;;;;;;8.27;100.00;102104.09;4996915;28;19957;-72
2022/03/14 05:10:39;;;;;;;;;;;;;;;8.28;100.00;102103.19;4997408;28;20004;-71
2022/03/14 05:13:05;;;;;;;;;;;;;;;8.30;100.00;102098.75;4996642;28;19924;-71
2022/03/14 05:15:31;;;;;;;;;;;;;;;8.29;100.00;102091.69;4997111;28;20294;-71
2022/03/14 05:17:57;;;;;;;;;;;;;;;8.25;100.00;102107.66;4997120;28;19925;-71
2022/03/14 05:20:23;;;;;;;;;;;;;;;8.23;100.00;102109.44;4996755;28;19924;-71
2022/03/14 05:22:49;;;;;;;;;;;;;;;8.19;100.00;102107.69;4997074;28;19918;-71
2022/03/14 05:25:14;;;;;;;;;;;;;;;8.24;100.00;102106.75;4996957;28;19958;-74
2022/03/14 05:27:41;;;;;;;;;;;;;;;8.16;100.00;102102.44;4998492;28;19918;-72
2022/03/14 05:30:08;;;;;;;;;;;;;;;8.14;100.00;102104.22;4996697;28;20021;-71
2022/03/14 05:32:33;;;;;;;;;;;;;;;8.10;100.00;102119.25;4996778;28;20014;-70
2022/03/14 05:34:58;;;;;;;;;;;;;;;8.13;100.00;102111.28;4997935;28;20389;-71
2022/03/14 05:37:24;;;;;;;;;;;;;;;8.05;100.00;102129.03;4996846;28;19922;-70
2022/03/14 05:39:50;;;;;;;;;;;;;;;8.13;100.00;102127.16;4997646;28;19926;-77
2022/03/14 05:42:15;;;;;;;;;;;;;;;8.21;100.00;102129.72;5016066;28;19918;-71
2022/03/14 05:44:42;;;;;;;;;;;;;;;8.14;100.00;102134.22;5014855;28;20008;-70
2022/03/14 05:47:08;;;;;;;;;;;;;;;8.12;100.00;102133.34;4989188;28;19922;-72
2022/03/14 05:49:33;;;;;;;;;;;;;;;8.15;100.00;102132.44;5010340;28;19917;-71
2022/03/14 05:51:58;;;;;;;;;;;;;;;8.20;100.00;102135.91;5015575;28;20016;-72
2022/03/14 05:54:23;;;;;;;;;;;;;;;8.07;100.00;102137.81;5015861;28;19918;-71
2022/03/14 05:56:48;;;;;;;;;;;;;;;8.09;100.00;102151.91;5015908;28;20271;-73
2022/03/14 05:59:14;;;;;;;;;;;;;;;8.10;100.00;102153.66;5016337;28;20394;-71
2022/03/14 06:01:40;;;;;;;;;;;;;;;8.14;100.00;102163.31;5015795;28;20386;-71
2022/03/14 06:04:05;;;;;;;;;;;;;;;8.18;100.00;102175.63;4999577;28;19921;-72
2022/03/14 06:06:31;;;;;;;;;;;;;;;8.19;100.00;102168.56;4985293;28;20020;-70
2022/03/14 06:08:56;;;;;;;;;;;;;;;8.16;100.00;102177.44;4982415;28;19957;-73
2022/03/14 06:11:22;;;;;;;;;;;;;;;8.09;100.00;102173.09;4988935;28;19957;-74
2022/03/14 06:13:47;;;;;;;;;;;;;;;8.15;100.00;102178.28;4994636;28;19924;-73
2022/03/14 06:16:13;;;;;;;;;;;;;;;8.22;100.00;102184.41;4982831;28;19926;-71
2022/03/14 06:18:38;;;;;;;;;;;;;;;8.18;100.00;102196.78;4992110;28;20426;-73
2022/03/14 06:21:04;;;;;;;;;;;;;;;8.23;100.00;102181.78;4988312;28;20033;-70
2022/03/14 06:23:29;;;;;;;;;;;;;;;8.19;100.00;102195.91;4992102;28;19917;-71
2022/03/14 06:25:54;;;;;;;;;;;;;;;8.14;100.00;102196.84;4987153;28;19965;-72
2022/03/14 06:28:21;;;;;;;;;;;;;;;8.15;100.00;102201.22;4988074;28;19921;-71
2022/03/14 06:30:46;;;;;;;;;;;;;;;8.14;100.00;102204.78;4985765;28;19918;-71
2022/03/14 06:33:11;;;;;;;;;;;;;;;8.11;100.00;102208.34;4992196;28;19945;-71
2022/03/14 06:35:37;;;;;;;;;;;;;;;8.19;100.00;102205.59;4985899;28;20021;-71
2022/03/14 06:38:03;;;;;;;;;;;;;;;8.26;100.00;102208.19;4983913;28;19918;-72
2022/03/14 06:40:28;;;;;;;;;;;;;;;8.19;100.00;102213.53;4981836;28;19972;-72
2022/03/14 06:42:53;;;;;;;;;;;;;;;8.21;100.00;102222.34;4995186;28;19917;-72
2022/03/14 06:45:22;;;;;;;;;;;;;;;8.35;100.00;102223.97;4995123;28;19918;-72
2022/03/14 06:47:47;;;;;;;;;;;;;;;8.53;100.00;102218.47;4995033;28;20350;-73
2022/03/14 06:50:14;;;;;;;;;;;;;;;8.44;100.00;102229.19;4996593;28;19956;-73
2022/03/14 06:52:39;;;;;;;;;;;;;;;8.57;100.00;102229.91;4994365;28;19922;-72
2022/03/14 06:55:05;;;;;;;;;;;;;;;8.70;100.00;102229.72;4994235;28;20291;-73
2022/03/14 06:57:30;;;;;;;;;;;;;;;8.65;100.00;102233.34;4995758;28;19929;-73
2022/03/14 06:59:56;;;;;;;;;;;;;;;8.65;100.00;102228.88;4994650;28;19918;-73
2022/03/14 07:02:24;;;;;;;;;;;;;;;8.68;100.00;102228.00;4995727;28;20285;-72
2022/03/14 07:04:50;;;;;;;;;;;;;;;8.80;100.00;102239.31;4996682;28;19918;-74
2022/03/14 07:07:15;;;;;;;;;;;;;;;8.76;100.00;102237.56;4995622;28;19918;-74
2022/03/14 07:09:40;;;;;;;;;;;;;;;8.79;100.00;102237.53;4994200;28;20017;-75
2022/03/14 07:12:09;;;;;;;;;;;;;;;8.81;100.00;102240.16;4977779;28;20363;-76
2022/03/14 07:14:34;;;;;;;;;;;;;;;8.92;100.00;102238.25;4983401;28;19922;-76
2022/03/14 07:17:00;;;;;;;;;;;;;;;8.79;100.00;102244.63;4997353;28;20064;-73
2022/03/14 07:19:25;;;;;;;;;;;;;;;8.94;100.00;102237.34;4996227;28;19968;-73
2022/03/14 07:21:50;;;;;;;;;;;;;;;8.90;100.00;102248.84;4994384;28;20004;-74
2022/03/14 07:24:15;;;;;;;;;;;;;;;8.89;100.00;102254.19;4994477;28;20291;-73
2022/03/14 07:26:41;;;;;;;;;;;;;;;8.94;100.00;102247.94;4977459;28;19922;-74
2022/03/14 07:29:06;;;;;;;;;;;;;;;9.01;100.00;102249.59;4994218;28;19917;-73
2022/03/14 07:31:31;;;;;;;;;;;;;;;9.05;100.00;102246.00;4995321;28;19918;-73
2022/03/14 07:33:56;;;;;;;;;;;;;;;9.02;100.00;102256.66;4994259;28;19953;-73
2022/03/14 07:36:22;;;;;;;;;;;;;;;8.99;100.00;102251.41;4993915;28;19918;-74
2022/03/14 07:38:47;;;;;;;;;;;;;;;9.20;100.00;102256.38;4995345;28;19960;-73
2022/03/14 07:41:12;;;;;;;;;;;;;;;9.13;100.00;102252.09;4993311;28;20395;-74
2022/03/14 07:43:38;;;;;;;;;;;;;;;9.19;100.00;102253.75;4996225;28;19918;-69
2022/03/14 07:46:04;;;;;;;;;;;;;;;9.19;100.00;102253.75;4995407;28;19918;-72
2022/03/14 07:48:29;;;;;;;;;;;;;;;9.36;100.00;102264.97;4995452;28;19965;-72
2022/03/14 07:50:55;;;;;;;;;;;;;;;9.20;100.00;102266.13;4995048;28;19921;-73
2022/03/14 07:53:20;;;;;;;;;;;;;;;9.17;100.00;102268.84;4994697;28;19925;-73
2022/03/14 07:55:45;;;;;;;;;;;;;;;9.18;100.00;102268.81;4995806;28;20024;-73
2022/03/14 07:58:11;;;;;;;;;;;;;;;9.11;100.00;102267.13;4995292;28;20021;-73
2022/03/14 08:00:36;;;;;;;;;;;;;;;9.11;100.00;102277.72;4995140;28;19918;-74
2022/03/14 08:03:01;;;;;;;;;;;;;;;9.23;100.00;102277.53;4994290;28;20283;-74
2022/03/14 08:05:27;;;;;;;;;;;;;;;9.24;100.00;102289.91;4979680;28;19945;-75
2022/03/14 08:07:53;;;;;;;;;;;;;;;9.14;100.00;102296.22;5001212;28;20199;-74
2022/03/14 08:10:19;;;;;;;;;;;;;;;9.06;100.00;102300.75;5003797;28;19925;-74
2022/03/14 08:12:46;;;;;;;;;;;;;;;8.99;100.00;102299.09;5000738;28;20028;-74
2022/03/14 08:15:17;;;;;;;;;;;;;;;8.99;100.00;102307.06;4991227;28;20017;-74
2022/03/14 08:17:42;;;;;;;;;;;;;;;8.90;100.00;102307.16;4983508;28;19925;-73
2022/03/14 08:20:08;;;;;;;;;;;;;;;8.97;100.00;102316.78;4981693;28;19918;-74
2022/03/14 08:22:33;;;;;;;;;;;;;;;9.08;100.00;102325.47;4979409;28;19925;-74
2022/03/14 08:24:58;;;;;;;;;;;;;;;9.26;100.00;102330.53;4988982;28;19918;-77
2022/03/14 08:27:24;;;;;;;;;;;;;;;9.38;100.00;102336.56;4997982;28;19921;-73
2022/03/14 08:29:49;;;;;;;;;;;;;;;9.32;100.00;102341.06;4994266;28;19929;-72
2022/03/14 08:32:15;;;;;;;;;;;;;;;9.38;100.00;102342.75;4980897;28;20030;-73
2022/03/14 08:34:42;;;;;;;;;;;;;;;9.39;100.00;102340.97;4974217;28;19945;-73
2022/03/14 08:37:07;;;;;;;;;;;;;;;9.36;100.00;102343.66;4991559;28;20339;-73
2022/03/14 08:39:33;;;;;;;;;;;;;;;9.18;100.00;102352.75;4975225;28;20053;-73
2022/03/14 08:41:58;;;;;;;;;;;;;;;9.26;100.00;102350.88;4974029;28;19930;-73
2022/03/14 08:44:24;;;;;;;;;;;;;;;9.20;100.00;102351.81;4975153;28;19918;-73
2022/03/14 08:46:49;;;;;;;;;;;;;;;9.07;100.00;102360.84;4990640;28;20013;-73
2022/03/14 08:49:14;;;;;;;;;;;;;;;9.16;100.00;102373.09;5009047;28;19929;-73
2022/03/14 08:51:40;;;;;;;;;;;;;;;9.24;100.00;102373.88;5014793;28;19928;-73
2022/03/14 08:54:06;;;;;;;;;;;;;;;9.20;100.00;102380.13;5014876;28;19917;-73
2022/03/14 08:56:32;;;;;;;;;;;;;;;9.08;100.00;102381.13;5013510;28;19952;-73
2022/03/14 08:58:57;;;;;;;;;;;;;;;9.23;100.00;102385.38;5013529;28;19918;-73
2022/03/14 09:01:22;;;;;;;;;;;;;;;9.34;100.00;102391.41;5013213;28;20004;-73
2022/03/14 09:03:47;;;;;;;;;;;;;;;9.46;100.00;102400.97;4996589;28;19929;-73
2022/03/14 09:06:12;;;;;;;;;;;;;;;9.59;100.00;102395.50;5012942;28;20005;-73
2022/03/14 09:08:39;;;;;;;;;;;;;;;9.52;100.00;102400.91;5014476;28;19918;-73
2022/03/14 09:11:04;;;;;;;;;;;;;;;9.28;100.00;102404.75;5014594;28;19945;-73
2022/03/14 09:13:29;;;;;;;;;;;;;;;9.45;100.00;102409.84;5015027;28;20306;-73
2022/03/14 09:15:54;;;;;;;;;;;;;;;9.68;100.00;102403.31;5014414;28;19922;-73
2022/03/14 09:18:21;;;;;;;;;;;;;;;9.58;100.00;102412.28;4997268;28;19922;-73
2022/03/14 09:20:48;;;;;;;;;;;;;;;9.95;100.00;102407.34;5014257;28;19918;-73
2022/03/14 09:23:13;;;;;;;;;;;;;;;10.10;100.00;102405.34;5013618;28;19922;-73
2022/03/14 09:25:38;;;;;;;;;;;;;;;10.06;100.00;102406.28;5014911;28;20005;-73
2022/03/14 09:28:03;;;;;;;;;;;;;;;10.27;100.00;102411.28;5015005;28;20334;-73
2022/03/14 09:30:29;;;;;;;;;;;;;;;10.38;100.00;102413.75;5012534;28;19917;-73
2022/03/14 09:32:54;;;;;;;;;;;;;;;10.18;100.00;102413.22;5013131;28;20381;-73
2022/03/14 09:35:21;;;;;;;;;;;;;;;10.46;100.00;102411.84;5012758;28;20016;-73
2022/03/14 09:37:46;;;;;;;;;;;;;;;10.50;100.00;102418.84;5013562;28;20298;-73
2022/03/14 09:40:13;;;;;;;;;;;;;;;10.26;100.00;102425.44;5013876;28;20075;-73
2022/03/14 09:42:43;;;;;;;;;;;;;;;10.23;100.00;102428.16;5013175;28;19924;-73
2022/03/14 09:45:09;;;;;;;;;;;;;;;10.17;100.00;102443.28;5013298;28;19924;-73
2022/03/14 09:47:38;;;;;;;;;;;;;;;9.95;100.00;102444.50;5013124;28;19917;-73
2022/03/14 09:50:14;;;;;;;;;;;;;;;10.19;100.00;102450.38;4995418;28;19924;-72
2022/03/14 09:52:43;;;;;;;;;;;;;;;10.20;100.00;102456.53;4980229;28;19965;-73
2022/03/14 09:55:10;;;;;;;;;;;;;;;10.27;100.00;102460.84;4997722;28;19973;-73
2022/03/14 09:57:36;;;;;;;;;;;;;;;10.03;100.00;102470.03;4996444;28;19961;-73
2022/03/14 10:00:01;;;;;;;;;;;;;;;10.15;100.00;102469.00;4997022;28;19964;-72
2022/03/14 10:02:26;;;;;;;;;;;;;;;10.12;100.00;102477.00;4997265;28;20029;-73
2022/03/14 10:04:52;;;;;;;;;;;;;;;10.34;100.00;102479.31;4996097;28;19973;-73
2022/03/14 10:07:17;;;;;;;;;;;;;;;10.53;100.00;102474.56;4995951;28;20426;-72
2022/03/14 10:09:43;;;;;;;;;;;;;;;10.28;100.00;102482.06;4995859;28;19918;-73
2022/03/14 10:12:08;;;;;;;;;;;;;;;10.57;100.00;102493.09;4995995;28;20005;-73
2022/03/14 10:14:33;;;;;;;;;;;;;;;10.70;100.00;102491.09;4997243;28;19917;-73
2022/03/14 10:17:00;;;;;;;;;;;;;;;11.04;100.00;102492.28;4995602;28;19924;-73
2022/03/14 10:19:29;;;;;;;;;;;;;;;11.15;100.00;102492.97;4997183;28;20450;-73
2022/03/14 10:21:55;;;;;;;;;;;;;;;11.29;100.00;102506.88;4996292;28;19922;-73
2022/03/14 10:24:21;;;;;;;;;;;;;;;11.16;100.00;102512.44;4995515;28;20385;-73
2022/03/14 10:26:46;;;;;;;;;;;;;;;11.37;100.00;102510.25;4995466;28;19957;-73
2022/03/14 10:29:14;;;;;;;;;;;;;;;11.59;100.00;102511.59;4995613;28;19992;-73
2022/03/14 10:31:40;;;;;;;;;;;;;;;11.67;100.00;102517.66;4995390;28;19918;-73
2022/03/14 10:34:11;;;;;;;;;;;;;;;11.80;100.00;102510.31;4996539;28;19926;-73
2022/03/14 10:36:42;;;;;;;;;;;;;;;12.40;100.00;102516.03;4995337;28;19918;-72
2022/03/14 10:39:11;;;;;;;;;;;;;;;12.87;100.00;102518.41;4997071;28;20001;-73
2022/03/14 10:41:36;;;;;;;;;;;;;;;12.72;100.00;102521.44;4995155;28;19921;-73
2022/03/14 10:44:02;;;;;;;;;;;;;;;13.09;100.00;102514.31;4995040;28;19925;-72
2022/03/14 10:46:27;;;;;;;;;;;;;;;13.03;100.00;102533.16;4995119;28;19924;-73
2022/03/14 10:48:52;;;;;;;;;;;;;;;12.35;100.00;102537.47;5007546;28;19924;-73
2022/03/14 10:51:20;;;;;;;;;;;;;;;11.97;100.00;102542.75;5013848;28;20268;-73
2022/03/14 10:53:46;;;;;;;;;;;;;;;12.03;100.00;102547.97;5014331;28;19921;-73
2022/03/14 10:56:12;;;;;;;;;;;;;;;12.05;100.00;102552.31;5016290;28;19924;-72
2022/03/14 10:58:39;;;;;;;;;;;;;;;12.17;100.00;102544.09;5014471;28;20370;-73
2022/03/14 11:01:05;;;;;;;;;;;;;;;11.90;100.00;102555.31;5014296;28;20016;-73
2022/03/14 11:03:35;;;;;;;;;;;;;;;12.16;100.00;102566.28;5014212;28;19917;-73
2022/03/14 11:06:10;;;;;;;;;;;;;;;12.05;100.00;102564.78;5014730;28;19918;-73
2022/03/14 11:08:36;;;;;;;;;;;;;;;11.56;100.00;102566.66;5014092;28;20298;-73
2022/03/14 11:11:05;;;;;;;;;;;;;;;11.84;100.00;102567.88;5014014;28;19925;-73
2022/03/14 11:13:30;;;;;;;;;;;;;;;11.40;100.00;102563.41;5014225;28;19918;-73
2022/03/14 11:15:56;;;;;;;;;;;;;;;11.47;100.00;102583.66;5015189;28;20400;-72
2022/03/14 11:18:22;;;;;;;;;;;;;;;11.58;100.00;102580.81;5013833;28;20012;-73
2022/03/14 11:20:48;;;;;;;;;;;;;;;11.63;100.00;102584.31;5014986;28;19961;-72
2022/03/14 11:23:14;;;;;;;;;;;;;;;11.80;100.00;102568.88;5015197;28;20362;-73
2022/03/14 11:25:40;;;;;;;;;;;;;;;11.79;100.00;102575.97;5013773;28;20016;-73
2022/03/14 11:28:06;;;;;;;;;;;;;;;12.02;100.00;102576.38;5013907;28;19994;-73
2022/03/14 11:30:35;;;;;;;;;;;;;;;12.16;100.00;102568.09;5013781;28;20108;-73
2022/03/14 11:33:01;;;;;;;;;;;;;;;12.03;100.00;102572.81;5013787;28;19996;-73
2022/03/14 11:35:27;;;;;;;;;;;;;;;12.51;100.00;102568.19;5013672;28;19972;-73
2022/03/14 11:37:55;;;;;;;;;;;;;;;12.16;100.00;102566.28;5013667;28;19921;-72
2022/03/14 11:40:21;;;;;;;;;;;;;;;12.32;100.00;102566.84;5013632;28;19964;-73
2022/03/14 11:42:46;;;;;;;;;;;;;;;13.07;100.00;102565.03;5013945;28;19922;-73
2022/03/14 11:45:12;;;;;;;;;;;;;;;14.60;100.00;102567.72;5013747;28;19924;-73
2022/03/14 11:47:38;;;;;;;;;;;;;;;14.90;100.00;102563.16;5012187;28;20352;-73
2022/03/14 11:50:04;;;;;;;;;;;;;;;15.02;100.00;102558.28;4994269;28;19986;-73
2022/03/14 11:52:39;;;;;;;;;;;;;;;14.67;100.00;102566.56;4994816;28;20359;-73
2022/03/14 11:55:15;;;;;;;;;;;;;;;16.74;100.00;102563.41;4995103;28;19964;-73
2022/03/14 11:57:41;;;;;;;;;;;;;;;15.73;100.00;102563.78;4993620;28;19973;-73
2022/03/14 12:00:27;;;;;;;;;;;;;;;15.58;100.00;102566.16;4993637;28;20305;-73
2022/03/14 12:02:56;;;;;;;;;;;;;;;14.64;100.00;102577.38;4993641;28;20390;-73
2022/03/14 12:05:30;;;;;;;;;;;;;;;13.05;100.00;102579.31;4993485;28;20316;-73
2022/03/14 12:07:56;;;;;;;;;;;;;;;13.26;100.00;102581.44;4993437;28;20361;-73
2022/03/14 12:10:31;;;;;;;;;;;;;;;13.83;100.00;102590.53;4993569;28;19918;-73
2022/03/14 12:13:01;;;;;;;;;;;;;;;13.80;100.00;102601.31;4992865;28;20286;-73
2022/03/14 12:15:48;;;;;;;;;;;;;;;13.26;100.00;102605.44;4993129;28;19917;-73
2022/03/14 12:18:28;;;;;;;;;;;;;;;13.85;100.00;102602.06;4994423;28;19918;-72
2022/03/14 12:20:53;;;;;;;;;;;;;;;13.37;100.00;102611.38;4993040;28;20426;-73
2022/03/14 12:23:27;;;;;;;;;;;;;;;13.75;100.00;102606.78;4992989;28;20009;-73
2022/03/14 12:25:52;;;;;;;;;;;;;;;13.66;100.00;102606.16;4994430;28;20375;-73
2022/03/14 12:28:34;;;;;;;;;;;;;;;13.40;100.00;102606.84;4992913;28;19957;-72
2022/03/14 12:31:03;;;;;;;;;;;;;;;13.33;100.00;102607.06;4976811;28;20414;-73
2022/03/14 12:33:35;;;;;;;;;;;;;;;13.47;100.00;102599.56;4994184;28;20367;-73
2022/03/14 12:36:33;;;;;;;;;;;;;;;13.72;100.00;102600.66;4994882;28;20024;-73
2022/03/14 12:39:12;;;;;;;;;;;;;;;13.30;100.00;102601.81;4971092;28;19961;-73